Time;durP1;ratioP1;P1;durP2;ratioP2;P2;SDS_P1;SDS_P2;PMS_P1;PMS_P2;Temp;Humidity;BMP_temperature;BMP_pressure;BME280_temperature;BME280_humidity;BME280_pressure;Samples;Min_cycle;Max_cycle;Signal;HPM_P1;HPM_P2
2022/05/05 00:01:14;;;;;;;;;16.00;16.00;;;;;15.69;60.96;101841.78;5039033;28;45383;-69
2022/05/05 00:03:40;;;;;;;;;24.25;23.00;;;;;15.72;59.94;101847.81;5026324;28;45259;-70
2022/05/05 00:06:05;;;;;;;;;20.00;18.67;;;;;15.68;59.50;101867.47;5034829;28;45365;-68
2022/05/05 00:08:30;;;;;;;;;20.00;17.33;;;;;15.66;60.30;101861.28;5026492;28;45379;-69
2022/05/05 00:16:24;;;;;;;;;18.67;17.67;;;;;15.53;60.08;101867.13;5030373;28;45995;-70
2022/05/05 00:18:49;;;;;;;;;20.33;20.33;;;;;15.46;60.28;101864.09;5025567;28;45468;-70
2022/05/05 00:21:15;;;;;;;;;20.00;17.00;;;;;15.47;60.18;101864.97;5036140;28;46175;-71
2022/05/05 00:23:40;;;;;;;;;17.00;15.33;;;;;15.39;60.90;101865.72;5024407;28;45349;-69
2022/05/05 00:26:06;;;;;;;;;21.00;18.67;;;;;15.40;60.20;101862.00;5034319;28;45193;-68
2022/05/05 00:28:31;;;;;;;;;19.50;18.25;;;;;15.31;60.13;101860.16;5039839;28;45250;-70
2022/05/05 00:30:57;;;;;;;;;17.33;16.00;;;;;15.30;60.05;101858.44;5031486;28;45507;-69
2022/05/05 00:33:22;;;;;;;;;18.67;17.00;;;;;15.27;60.86;101861.44;5023522;28;45437;-69
2022/05/05 00:35:47;;;;;;;;;20.00;19.25;;;;;15.19;60.57;101855.91;5022356;28;45390;-70
2022/05/05 00:38:13;;;;;;;;;17.33;16.00;;;;;15.09;60.76;101861.41;5024318;28;45484;-69
2022/05/05 00:40:41;;;;;;;;;13.67;13.67;;;;;15.15;60.26;101866.28;5029056;28;46359;-69
2022/05/05 00:43:07;;;;;;;;;16.33;15.33;;;;;15.11;60.18;101853.91;5003972;28;45514;-70
2022/05/05 00:45:32;;;;;;;;;15.00;13.67;;;;;15.19;61.07;101866.84;5031035;28;45370;-69
2022/05/05 00:48:09;;;;;;;;;20.00;17.00;;;;;15.08;60.03;101867.91;5024606;28;45449;-70
2022/05/05 00:50:36;;;;;;;;;15.33;13.33;;;;;15.18;59.58;101878.81;5016631;28;45713;-69
2022/05/05 00:53:03;;;;;;;;;12.33;12.33;;;;;15.15;59.85;101874.50;5030143;28;45285;-70
2022/05/05 00:55:32;;;;;;;;;16.67;14.33;;;;;15.17;59.60;101875.22;5030197;28;45579;-70
2022/05/05 00:57:59;;;;;;;;;14.67;14.00;;;;;15.11;60.10;101858.53;5030237;28;45336;-71
2022/05/05 01:00:24;;;;;;;;;15.33;13.00;;;;;15.11;59.98;101855.78;5030641;28;46093;-70
2022/05/05 01:02:52;;;;;;;;;18.00;15.67;;;;;15.19;60.02;101866.84;5029478;28;45414;-69
2022/05/05 01:05:17;;;;;;;;;15.67;15.00;;;;;15.17;60.84;101863.41;5028909;28;45297;-69
2022/05/05 01:07:43;;;;;;;;;16.67;14.00;;;;;15.08;59.96;101858.81;5030296;28;45272;-69
2022/05/05 01:10:09;;;;;;;;;13.00;9.33;;;;;15.10;60.08;101873.22;5027030;28;46509;-70
2022/05/05 01:12:34;;;;;;;;;15.00;14.00;;;;;15.02;59.93;101864.91;5041798;28;45242;-69
2022/05/05 01:15:00;;;;;;;;;18.33;13.00;;;;;15.03;59.81;101872.09;5030255;28;45653;-70
2022/05/05 01:17:28;;;;;;;;;13.33;11.00;;;;;14.98;59.16;101875.28;5029733;28;45394;-71
2022/05/05 01:19:54;;;;;;;;;14.33;7.33;;;;;14.93;59.62;101874.00;5013987;28;47070;-70
2022/05/05 01:22:19;;;;;;;;;13.67;13.00;;;;;14.78;59.96;101860.81;5011385;28;45658;-69
2022/05/05 01:30:13;;;;;;;;;12.00;11.67;;;;;14.76;60.26;101873.75;5036377;28;45781;-69
2022/05/05 01:32:38;;;;;;;;;15.00;13.50;;;;;14.75;59.95;101871.19;5021708;28;45530;-68
2022/05/05 01:35:04;;;;;;;;;12.00;9.33;;;;;14.67;60.33;101866.47;5034366;28;45492;-69
2022/05/05 01:37:30;;;;;;;;;10.33;10.33;;;;;14.66;59.88;101874.81;5026912;28;45644;-68
2022/05/05 01:39:55;;;;;;;;;11.00;9.00;;;;;14.62;60.08;101867.91;5031993;28;45425;-68
2022/05/05 01:42:21;;;;;;;;;14.67;11.33;;;;;14.65;60.00;101863.00;5038447;28;45339;-68
2022/05/05 01:44:46;;;;;;;;;10.00;10.00;;;;;14.58;60.34;101864.59;5031163;28;45393;-72
2022/05/05 01:47:12;;;;;;;;;12.00;12.00;;;;;14.53;60.41;101869.66;5025171;28;45326;-71
2022/05/05 01:49:37;;;;;;;;;10.00;9.00;;;;;14.46;60.62;101867.66;5020737;28;46980;-70
2022/05/05 01:52:08;;;;;;;;;8.00;8.00;;;;;14.34;61.00;101864.16;5038986;28;45283;-70
2022/05/05 01:54:34;;;;;;;;;13.00;12.33;;;;;14.32;60.69;101860.72;5031069;28;45288;-70
2022/05/05 01:56:59;;;;;;;;;9.33;9.33;;;;;14.28;61.12;101864.75;5035732;28;45438;-70
2022/05/05 01:59:24;;;;;;;;;15.33;14.00;;;;;14.26;61.33;101872.22;5011262;28;47550;-70
2022/05/05 02:01:50;;;;;;;;;13.67;11.67;;;;;14.18;61.45;101875.69;5026632;28;45483;-69
2022/05/05 02:04:15;;;;;;;;;15.00;14.00;;;;;14.12;61.68;101859.88;5038833;28;45402;-69
2022/05/05 02:06:40;;;;;;;;;10.33;9.67;;;;;14.13;61.42;101866.19;5035620;28;45522;-69
2022/05/05 02:09:06;;;;;;;;;16.67;14.67;;;;;14.07;62.10;101867.66;5027427;28;45505;-69
2022/05/05 02:11:31;;;;;;;;;9.67;8.00;;;;;14.04;61.77;101871.53;5043009;28;45304;-69
2022/05/05 02:13:56;;;;;;;;;10.67;10.67;;;;;14.04;62.09;101867.91;5040601;28;45341;-70
2022/05/05 02:16:22;;;;;;;;;11.67;11.67;;;;;14.01;62.13;101869.09;5030492;28;45363;-69
2022/05/05 02:18:47;;;;;;;;;13.67;11.00;;;;;14.02;62.10;101881.75;5007156;28;48181;-69
2022/05/05 02:21:12;;;;;;;;;10.33;10.33;;;;;14.00;61.56;101866.50;5038088;28;45324;-70
2022/05/05 02:23:38;;;;;;;;;12.00;12.00;;;;;13.95;62.15;101866.91;5027427;28;45433;-70
2022/05/05 02:26:04;;;;;;;;;14.00;11.00;;;;;13.84;61.98;101858.88;5037607;28;45443;-70
2022/05/05 02:28:31;;;;;;;;;12.67;11.33;;;;;13.71;61.98;101862.88;5040855;28;45461;-70
2022/05/05 02:30:57;;;;;;;;;16.00;12.33;;;;;13.72;62.56;101868.22;5033722;28;45400;-70
2022/05/05 02:33:22;;;;;;;;;5.67;4.00;;;;;13.81;62.06;101872.78;5006976;28;45528;-70
2022/05/05 02:38:42;;;;;;;;;16.67;13.67;;;;;13.81;61.86;101867.31;5035985;28;45358;-69
2022/05/05 02:38:46;;;;;;;;;15.00;13.00;;;;;13.82;62.14;101863.59;5026135;28;45550;-69
2022/05/05 02:41:12;;;;;;;;;11.00;11.00;;;;;13.81;62.08;101861.88;5027499;28;45326;-70
2022/05/05 02:43:37;;;;;;;;;14.00;14.00;;;;;13.76;62.81;101866.91;5007846;28;45335;-69
2022/05/05 02:46:03;;;;;;;;;10.00;10.00;;;;;13.74;62.62;101855.25;5034263;28;45446;-70
2022/05/05 02:48:28;;;;;;;;;15.33;12.33;;;;;13.69;62.44;101865.75;5030743;28;45675;-70
2022/05/05 02:50:53;;;;;;;;;16.67;14.00;;;;;13.62;62.54;101845.47;5021768;28;45179;-69
2022/05/05 02:56:03;;;;;;;;;17.67;15.67;;;;;13.68;62.89;101855.81;5035950;28;45240;-69
2022/05/05 02:58:29;;;;;;;;;21.67;13.67;;;;;13.66;62.47;101860.59;5028482;28;45769;-70
2022/05/05 03:00:55;;;;;;;;;15.33;15.33;;;;;13.69;63.15;101857.56;5034820;28;45417;-70
2022/05/05 03:03:20;;;;;;;;;19.33;13.33;;;;;13.60;63.37;101859.25;5024424;28;45343;-69
2022/05/05 03:05:46;;;;;;;;;17.67;15.00;;;;;13.60;63.42;101867.44;5033910;28;45350;-69
2022/05/05 03:08:12;;;;;;;;;14.67;12.00;;;;;13.60;62.99;101864.72;5026541;28;47566;-69
2022/05/05 03:10:37;;;;;;;;;13.67;13.67;;;;;13.58;63.26;101871.34;5018316;28;45382;-68
2022/05/05 03:13:03;;;;;;;;;17.00;14.67;;;;;13.57;63.93;101862.28;5027300;28;45259;-69
2022/05/05 03:15:28;;;;;;;;;18.00;14.33;;;;;13.34;63.89;101862.66;5029343;28;45521;-69
2022/05/05 03:17:54;;;;;;;;;17.75;15.75;;;;;13.27;64.29;101864.22;5025257;28;47020;-70
2022/05/05 03:20:19;;;;;;;;;12.33;11.67;;;;;13.28;64.43;101857.75;5037001;28;45343;-68
2022/05/05 03:22:44;;;;;;;;;16.33;14.67;;;;;13.24;64.72;101874.38;5027395;28;45276;-69
2022/05/05 03:25:10;;;;;;;;;19.00;16.33;;;;;13.18;65.06;101855.84;5034843;28;45236;-70
2022/05/05 03:27:37;;;;;;;;;20.33;19.00;;;;;13.18;65.41;101864.03;5035054;28;45308;-70
2022/05/05 03:30:03;;;;;;;;;17.67;14.33;;;;;13.28;64.74;101858.63;5037087;28;45178;-69
2022/05/05 03:32:29;;;;;;;;;24.33;20.33;;;;;13.38;64.56;101864.09;5009208;28;45351;-70
2022/05/05 03:34:55;;;;;;;;;17.33;13.33;;;;;13.36;64.44;101871.56;5032432;28;45257;-69
2022/05/05 03:37:20;;;;;;;;;17.00;17.00;;;;;13.32;64.82;101865.50;5026225;28;46285;-69
2022/05/05 03:39:46;;;;;;;;;18.33;17.00;;;;;13.41;65.02;101875.59;5030309;28;45490;-70
2022/05/05 03:42:11;;;;;;;;;19.33;15.67;;;;;13.42;64.79;101873.75;5023558;28;45462;-69
2022/05/05 03:44:37;;;;;;;;;16.33;14.00;;;;;13.47;64.77;101875.03;5029746;28;45418;-71
2022/05/05 03:47:03;;;;;;;;;16.67;16.67;;;;;13.51;64.88;101881.09;5018217;28;46502;-69
2022/05/05 03:49:28;;;;;;;;;18.67;16.33;;;;;13.41;64.51;101864.69;5028622;28;45441;-69
2022/05/05 03:51:55;;;;;;;;;18.67;16.00;;;;;13.39;64.83;101877.59;5041789;28;45361;-70
2022/05/05 03:54:22;;;;;;;;;22.67;17.67;;;;;13.39;65.19;101871.28;5031315;28;45280;-70
2022/05/05 03:56:47;;;;;;;;;20.67;18.67;;;;;13.50;65.08;101873.91;5032612;28;45456;-70
2022/05/05 03:59:12;;;;;;;;;9.00;9.00;;;;;13.33;65.25;101877.28;5007188;28;45312;-69
2022/05/05 04:01:38;;;;;;;;;23.33;19.00;;;;;13.35;65.41;101862.53;5036203;28;45228;-70
2022/05/05 04:04:03;;;;;;;;;12.00;8.33;;;;;13.49;64.65;101875.78;5026033;28;45567;-69
2022/05/05 04:06:29;;;;;;;;;16.50;14.00;;;;;13.58;64.74;101880.41;5033217;28;46111;-70
2022/05/05 04:08:54;;;;;;;;;22.25;22.25;;;;;13.69;64.57;101884.00;5028079;28;45358;-70
2022/05/05 04:11:19;;;;;;;;;17.67;13.00;;;;;13.69;64.49;101884.00;5032187;28;46401;-72
2022/05/05 04:13:46;;;;;;;;;18.00;17.33;;;;;13.64;64.59;101881.69;5008260;28;45390;-70
2022/05/05 04:16:11;;;;;;;;;23.33;18.67;;;;;13.71;64.39;101888.31;5019084;28;48194;-69
2022/05/05 04:18:37;;;;;;;;;18.33;17.67;;;;;13.68;64.35;101888.59;5024991;28;45435;-69
2022/05/05 04:21:03;;;;;;;;;21.33;17.67;;;;;13.53;65.04;101881.81;5031850;28;45244;-70
2022/05/05 04:23:29;;;;;;;;;13.67;13.33;;;;;13.57;64.80;101888.72;5006575;28;45465;-70
2022/05/05 04:25:55;;;;;;;;;20.00;18.33;;;;;13.41;65.47;101891.97;5032681;28;45407;-69
2022/05/05 04:28:21;;;;;;;;;23.33;16.00;;;;;13.53;65.28;101898.19;5038357;28;45347;-69
2022/05/05 04:30:47;;;;;;;;;16.00;14.00;;;;;13.57;65.04;101891.47;5033348;28;45154;-69
2022/05/05 04:33:13;;;;;;;;;17.33;15.00;;;;;13.56;65.39;101906.13;5023140;28;45336;-69
2022/05/05 04:35:39;;;;;;;;;19.67;17.67;;;;;13.46;65.56;101891.56;5004623;28;47441;-69
2022/05/05 04:38:05;;;;;;;;;19.33;18.33;;;;;13.45;65.77;101895.28;5022551;28;45356;-70
2022/05/05 04:40:31;;;;;;;;;28.25;22.25;;;;;13.47;65.56;101896.88;5036137;28;45457;-70
2022/05/05 04:42:57;;;;;;;;;16.33;14.00;;;;;13.45;65.55;101904.34;5034449;28;45394;-68
2022/05/05 04:45:22;;;;;;;;;20.67;18.33;;;;;13.39;66.00;101906.75;5028600;28;46025;-70
2022/05/05 04:47:48;;;;;;;;;22.25;19.00;;;;;13.32;66.43;101901.00;5033720;28;45402;-70
2022/05/05 04:50:14;;;;;;;;;22.00;18.33;;;;;13.28;66.49;101904.16;5011553;28;45523;-70
2022/05/05 04:52:39;;;;;;;;;20.75;18.75;;;;;13.27;66.88;101910.59;5034020;28;45309;-70
2022/05/05 04:55:05;;;;;;;;;22.00;18.67;;;;;13.34;66.79;101909.06;5027777;28;45460;-70
2022/05/05 04:57:30;;;;;;;;;26.00;20.00;;;;;13.28;67.09;101912.34;5032648;28;45390;-70
2022/05/05 04:59:55;;;;;;;;;23.00;19.67;;;;;13.41;66.56;101912.97;5029354;28;45356;-70
2022/05/05 05:02:21;;;;;;;;;26.00;21.00;;;;;13.43;66.56;101916.41;5031547;28;45240;-69
2022/05/05 05:04:47;;;;;;;;;21.75;19.50;;;;;13.39;66.67;101910.34;5007895;28;45480;-69
2022/05/05 05:07:12;;;;;;;;;27.75;24.25;;;;;13.32;67.16;101914.66;5029857;28;45226;-69
2022/05/05 05:09:37;;;;;;;;;22.33;19.00;;;;;13.35;67.31;101917.13;5008176;28;45256;-71
2022/05/05 05:12:03;;;;;;;;;18.67;18.67;;;;;13.46;66.93;101916.13;5022605;28;45168;-68
2022/05/05 05:14:29;;;;;;;;;27.00;20.75;;;;;13.52;66.54;101918.28;5037113;28;45216;-68
2022/05/05 05:16:54;;;;;;;;;27.00;22.67;;;;;13.53;67.14;101926.34;5030153;28;45187;-69
2022/05/05 05:19:20;;;;;;;;;30.00;24.33;;;;;13.52;66.74;101932.81;5014346;28;45794;-70
2022/05/05 05:21:46;;;;;;;;;35.50;30.50;;;;;13.46;67.05;101932.50;5020074;28;45797;-70
2022/05/05 05:24:12;;;;;;;;;23.00;21.33;;;;;13.46;67.84;101938.84;5027693;28;46618;-68
2022/05/05 05:26:37;;;;;;;;;26.00;24.50;;;;;13.40;68.06;101933.06;5020651;28;45360;-69
2022/05/05 05:29:03;;;;;;;;;30.50;21.75;;;;;13.49;67.79;101940.44;5018404;28;45444;-68
2022/05/05 05:31:28;;;;;;;;;24.33;19.33;;;;;13.67;67.49;101937.88;5034177;28;45618;-69
2022/05/05 05:33:54;;;;;;;;;29.33;24.33;;;;;13.61;67.35;101942.03;5007922;28;47259;-69
2022/05/05 05:36:20;;;;;;;;;28.50;22.25;;;;;13.64;67.46;101945.38;5033803;28;45416;-70
2022/05/05 05:38:45;;;;;;;;;25.50;22.75;;;;;13.67;67.83;101946.06;5009717;28;45382;-70
2022/05/05 05:41:11;;;;;;;;;37.00;28.00;;;;;13.73;67.41;101951.88;5019050;28;45438;-71
2022/05/05 05:43:36;;;;;;;;;25.00;19.75;;;;;13.67;67.72;101944.22;5031619;28;46203;-71
2022/05/05 05:46:02;;;;;;;;;24.50;22.00;;;;;13.59;67.55;101946.78;5018418;28;45286;-70
2022/05/05 05:48:27;;;;;;;;;30.50;21.75;;;;;13.43;68.27;101941.00;5030760;28;45243;-69
2022/05/05 05:50:52;;;;;;;;;20.50;16.25;;;;;13.45;68.82;101952.63;5037643;28;45243;-69
2022/05/05 05:53:18;;;;;;;;;23.25;19.25;;;;;13.51;68.58;101957.56;5025106;28;45696;-70
2022/05/05 05:55:43;;;;;;;;;26.25;21.50;;;;;13.51;68.35;101946.63;5033220;28;45241;-69
2022/05/05 05:58:09;;;;;;;;;26.25;22.75;;;;;13.64;68.19;101948.09;5026353;28;45346;-69
2022/05/05 06:00:34;;;;;;;;;28.50;25.25;;;;;13.71;68.36;101962.06;5020381;28;45433;-69
2022/05/05 06:05:45;;;;;;;;;25.67;22.00;;;;;13.87;68.02;101945.16;5032099;28;45405;-71
2022/05/05 06:08:11;;;;;;;;;24.50;21.75;;;;;13.68;68.37;101965.06;5026911;28;45508;-70
2022/05/05 06:10:36;;;;;;;;;31.00;24.00;;;;;13.71;68.09;101947.53;5018523;28;45580;-68
2022/05/05 06:13:03;;;;;;;;;34.25;25.00;;;;;13.80;68.09;101950.31;5027006;28;45355;-70
2022/05/05 06:15:28;;;;;;;;;24.25;21.50;;;;;13.82;68.15;101950.16;5009672;28;45429;-72
2022/05/05 06:17:54;;;;;;;;;31.75;27.25;;;;;13.92;67.73;101960.09;5024955;28;45432;-70
2022/05/05 06:20:19;;;;;;;;;27.50;27.00;;;;;14.01;67.68;101962.00;5037931;28;45712;-70
2022/05/05 06:22:45;;;;;;;;;32.50;27.75;;;;;14.18;66.77;101973.22;5022349;28;47136;-69
2022/05/05 06:25:13;;;;;;;;;22.00;20.50;;;;;14.23;66.71;101966.34;5039128;28;45201;-69
2022/05/05 06:27:40;;;;;;;;;34.00;29.00;;;;;14.22;67.03;101974.69;5036799;28;45347;-69
2022/05/05 06:30:07;;;;;;;;;31.75;28.00;;;;;14.26;66.93;101967.91;5037671;28;45425;-71
2022/05/05 06:32:33;;;;;;;;;27.25;26.00;;;;;14.35;67.25;101964.31;5024357;28;46247;-70
2022/05/05 06:34:58;;;;;;;;;32.75;29.50;;;;;14.37;66.39;101973.25;5010885;28;45453;-71
2022/05/05 06:37:24;;;;;;;;;35.00;29.50;;;;;14.23;66.67;101952.69;5023797;28;45471;-71
2022/05/05 06:39:50;;;;;;;;;34.50;31.00;;;;;14.33;66.92;101980.00;5030740;28;46183;-70
2022/05/05 06:42:15;;;;;;;;;42.00;35.50;;;;;14.29;67.03;101982.16;5026772;28;45457;-70
2022/05/05 06:44:41;;;;;;;;;41.75;34.25;;;;;14.34;66.66;101973.53;5028782;28;47349;-70
2022/05/05 06:47:07;;;;;;;;;49.25;34.00;;;;;14.44;66.65;101976.31;5035925;28;45325;-70
2022/05/05 06:49:33;;;;;;;;;50.25;39.50;;;;;14.57;66.51;101988.69;5010653;28;45504;-71
2022/05/05 06:51:59;;;;;;;;;43.00;37.25;;;;;14.56;66.72;101984.22;5037528;28;45241;-71
2022/05/05 06:54:25;;;;;;;;;42.75;35.00;;;;;14.69;66.41;101986.66;5027149;28;45421;-72
2022/05/05 06:56:50;;;;;;;;;39.25;34.00;;;;;14.79;65.68;101985.66;5037561;28;45398;-70
2022/05/05 06:59:16;;;;;;;;;40.00;31.75;;;;;14.69;65.44;101992.97;5007911;28;45528;-71
2022/05/05 07:01:53;;;;;;;;;30.50;27.50;;;;;14.75;65.94;101984.22;5035795;28;45450;-70
2022/05/05 07:07:11;;;;;;;;;35.50;29.50;;;;;14.61;66.36;101998.31;5034598;28;45166;-71
2022/05/05 07:12:21;;;;;;;;;30.50;29.50;;;;;14.52;67.27;101992.88;5029374;28;45381;-71
2022/05/05 07:14:46;;;;;;;;;37.25;33.25;;;;;14.65;66.85;102002.50;5026593;28;45504;-71
2022/05/05 07:17:12;;;;;;;;;34.25;27.50;;;;;14.68;66.67;101998.63;5011128;28;45435;-72
2022/05/05 07:19:38;;;;;;;;;34.75;30.75;;;;;14.68;66.29;101998.63;5011999;28;45567;-71
2022/05/05 07:22:04;;;;;;;;;28.00;24.50;;;;;14.76;66.57;102010.53;5028646;28;46173;-71
2022/05/05 07:24:30;;;;;;;;;30.25;28.75;;;;;14.94;65.98;102002.47;5027468;28;45476;-71
2022/05/05 07:26:56;;;;;;;;;30.50;22.75;;;;;15.02;65.70;102001.75;5035320;28;45384;-72
2022/05/05 07:29:22;;;;;;;;;36.25;29.25;;;;;15.08;65.45;102012.09;5037028;28;45519;-72
2022/05/05 07:31:47;;;;;;;;;28.50;27.50;;;;;15.09;65.25;102003.75;5029965;28;45445;-71
2022/05/05 07:34:12;;;;;;;;;34.25;30.50;;;;;15.18;65.02;102004.75;5025693;28;45237;-71
2022/05/05 07:36:39;;;;;;;;;36.00;30.00;;;;;15.14;64.99;102011.50;5031644;28;45177;-72
2022/05/05 07:39:04;;;;;;;;;36.00;29.75;;;;;15.21;64.56;102015.38;5010575;28;45334;-70
2022/05/05 07:41:30;;;;;;;;;33.50;27.00;;;;;15.28;64.81;102013.78;5033892;28;45256;-70
2022/05/05 07:43:55;;;;;;;;;34.00;29.75;;;;;15.02;65.15;102018.16;5029330;28;45465;-71
2022/05/05 07:46:20;;;;;;;;;28.50;27.75;;;;;15.32;64.93;102015.22;5034172;28;45189;-70
2022/05/05 07:48:46;;;;;;;;;36.25;31.00;;;;;15.62;64.02;102018.75;5029476;28;45458;-71
2022/05/05 07:51:12;;;;;;;;;28.75;27.00;;;;;15.64;62.67;102019.44;5025032;28;46174;-70
2022/05/05 07:53:37;;;;;;;;;29.00;25.00;;;;;15.54;62.41;102014.03;5036788;28;46092;-72
2022/05/05 07:56:03;;;;;;;;;35.25;29.00;;;;;15.46;62.53;102020.22;5033153;28;45492;-71
2022/05/05 07:58:28;;;;;;;;;29.50;26.00;;;;;15.82;61.98;102021.25;5027897;28;45379;-71
2022/05/05 08:00:54;;;;;;;;;30.00;26.75;;;;;15.65;60.88;102023.91;5033441;28;45426;-69
2022/05/05 08:03:19;;;;;;;;;25.25;21.00;;;;;15.47;62.35;102024.69;5026006;28;45436;-71
2022/05/05 08:05:44;;;;;;;;;36.00;30.00;;;;;15.83;61.51;102023.00;5031696;28;45338;-72
2022/05/05 08:08:10;;;;;;;;;32.25;29.00;;;;;16.02;61.58;102015.66;5027780;28;45339;-72
2022/05/05 08:10:35;;;;;;;;;30.75;28.25;;;;;16.37;59.75;102034.91;5029246;28;46314;-72
2022/05/05 08:13:01;;;;;;;;;24.75;24.25;;;;;16.48;59.62;102014.66;5027355;28;45308;-71
2022/05/05 08:15:26;;;;;;;;;35.25;31.50;;;;;16.76;58.86;102024.56;5027979;28;45429;-73
2022/05/05 08:17:52;;;;;;;;;23.25;21.75;;;;;16.98;58.13;102029.56;5027256;28;45228;-72
2022/05/05 08:20:17;;;;;;;;;22.75;19.50;;;;;17.05;58.34;102018.78;5033948;28;46287;-72
2022/05/05 08:22:42;;;;;;;;;26.50;25.50;;;;;17.11;57.71;102027.25;5022791;28;45236;-72
2022/05/05 08:30:37;;;;;;;;;33.50;28.00;;;;;17.84;55.09;102019.47;5033434;28;45154;-72
2022/05/05 08:33:03;;;;;;;;;27.50;23.50;;;;;17.88;54.28;102020.03;5022712;28;45311;-71
2022/05/05 08:35:28;;;;;;;;;30.25;25.75;;;;;17.92;54.89;102024.16;5013721;28;45446;-71
2022/05/05 08:37:55;;;;;;;;;19.50;17.00;;;;;18.06;54.92;102025.41;5022721;28;45248;-72
2022/05/05 08:40:24;;;;;;;;;22.33;21.00;;;;;18.08;54.71;102035.22;5028971;28;45444;-72
2022/05/05 08:42:49;;;;;;;;;25.25;24.75;;;;;18.05;54.00;102029.19;5035322;28;45426;-72
2022/05/05 08:45:14;;;;;;;;;22.67;20.67;;;;;18.37;53.70;102022.94;5013227;28;45418;-73
2022/05/05 08:47:42;;;;;;;;;26.67;21.33;;;;;18.94;52.62;102023.91;5038188;28;45309;-72
2022/05/05 08:50:10;;;;;;;;;23.50;19.50;;;;;19.05;51.26;102029.06;5013919;28;47138;-72
2022/05/05 08:52:43;;;;;;;;;25.33;24.00;;;;;19.04;50.78;102028.22;5036841;28;45438;-72
2022/05/05 08:55:13;;;;;;;;;20.67;20.67;;;;;19.50;51.14;102030.44;5031451;28;45717;-72
2022/05/05 08:57:39;;;;;;;;;17.67;14.00;;;;;19.74;50.76;102025.69;5036099;28;45354;-73
2022/05/05 09:00:05;;;;;;;;;15.00;13.67;;;;;19.91;46.97;102029.25;5032400;28;45792;-72
2022/05/05 09:02:30;;;;;;;;;16.33;16.33;;;;;19.95;48.61;102043.53;5034038;28;45504;-72
2022/05/05 09:04:55;;;;;;;;;16.00;15.00;;;;;19.57;47.75;102020.41;5012974;28;45338;-72
2022/05/05 09:07:21;;;;;;;;;21.00;18.33;;;;;19.71;48.83;102044.50;5033666;28;45255;-72
2022/05/05 09:09:49;;;;;;;;;17.00;15.67;;;;;19.96;47.44;102037.84;5010338;28;46744;-72
2022/05/05 09:12:16;;;;;;;;;14.00;13.33;;;;;19.74;47.67;102041.38;5022665;28;45294;-71
2022/05/05 09:14:45;;;;;;;;;18.00;18.00;;;;;19.45;48.40;102040.03;5036274;28;45440;-72
2022/05/05 09:17:13;;;;;;;;;14.00;14.00;;;;;19.67;48.18;102029.34;5030813;28;45558;-71
2022/05/05 09:19:43;;;;;;;;;15.33;13.33;;;;;20.13;47.01;102035.88;5030868;28;45575;-72
2022/05/05 09:22:09;;;;;;;;;17.67;17.67;;;;;20.26;46.43;102036.16;5030644;28;45355;-70
2022/05/05 09:24:35;;;;;;;;;16.67;15.33;;;;;20.63;45.88;102029.94;5030194;28;45393;-71
2022/05/05 09:27:15;;;;;;;;;16.00;15.33;;;;;20.62;46.26;102039.25;5038032;28;45446;-71
2022/05/05 09:29:40;;;;;;;;;38.25;34.00;;;;;20.67;44.64;102034.06;5038347;28;45337;-71
2022/05/05 09:32:11;;;;;;;;;14.00;14.00;;;;;20.75;45.07;102033.16;5025394;28;45184;-70
2022/05/05 09:34:37;;;;;;;;;11.00;9.00;;;;;20.76;44.24;102032.94;5025488;28;45299;-70
2022/05/05 09:37:18;;;;;;;;;11.67;10.00;;;;;21.22;43.19;102038.47;5027214;28;45491;-71
2022/05/05 09:39:43;;;;;;;;;14.33;9.67;;;;;20.94;42.50;102038.16;5019984;28;46806;-71
2022/05/05 09:42:08;;;;;;;;;18.00;16.00;;;;;20.95;42.27;102037.13;5018500;28;45509;-71
2022/05/05 09:44:43;;;;;;;;;9.67;8.00;;;;;19.97;42.60;102044.22;5030478;28;45371;-71
2022/05/05 09:47:15;;;;;;;;;6.00;6.00;;;;;19.49;44.16;102039.72;5041172;28;45268;-70
2022/05/05 09:49:41;;;;;;;;;4.00;4.00;;;;;19.42;44.55;102026.63;5038698;28;46498;-71
2022/05/05 09:57:42;;;;;;;;;10.67;8.33;;;;;21.40;41.94;102022.41;5034001;28;45265;-70
2022/05/05 10:05:46;;;;;;;;;9.67;8.67;;;;;21.97;38.71;102032.84;5033339;28;45830;-71
2022/05/05 10:08:15;;;;;;;;;13.00;10.67;;;;;22.46;38.02;102033.91;5027988;28;45281;-70
2022/05/05 10:10:42;;;;;;;;;9.00;9.00;;;;;22.44;38.46;102032.38;5030099;28;46347;-70
2022/05/05 10:13:10;;;;;;;;;8.33;6.67;;;;;22.08;39.40;102026.81;5024536;28;45310;-70
2022/05/05 10:15:37;;;;;;;;;6.33;5.00;;;;;21.57;39.63;102032.22;5035558;28;45438;-69
2022/05/05 10:18:03;;;;;;;;;7.33;6.00;;;;;21.33;40.07;102035.28;5024571;28;45611;-69
2022/05/05 10:20:36;;;;;;;;;7.00;7.00;;;;;20.95;41.46;102048.19;5042315;28;46790;-71
2022/05/05 10:23:30;;;;;;;;;6.00;6.00;;;;;21.17;40.84;102035.41;5036261;28;45343;-69
2022/05/05 10:25:55;;;;;;;;;8.67;8.67;;;;;21.25;39.77;102033.44;5028867;28;45519;-71
2022/05/05 10:28:49;;;;;;;;;7.67;7.67;;;;;21.15;39.90;102037.47;5043251;28;45369;-69
2022/05/05 10:31:30;;;;;;;;;10.33;10.33;;;;;20.86;40.43;102049.28;5029788;28;45455;-69
2022/05/05 10:33:59;;;;;;;;;8.33;6.00;;;;;20.68;41.30;102048.69;5043396;28;45236;-67
2022/05/05 10:36:25;;;;;;;;;8.33;8.00;;;;;20.30;41.29;102036.69;5043877;28;45526;-70
2022/05/05 10:38:52;;;;;;;;;7.00;5.00;;;;;20.22;41.39;102045.84;5030709;28;45548;-70
2022/05/05 10:41:39;;;;;;;;;3.33;3.33;;;;;19.78;43.25;102040.00;5034824;28;45613;-71
2022/05/05 10:44:17;;;;;;;;;8.00;6.00;;;;;19.87;42.47;102040.84;5027669;28;45235;-70
2022/05/05 10:47:03;;;;;;;;;6.67;6.00;;;;;19.98;42.35;102045.97;5042016;28;45455;-70
2022/05/05 10:49:40;;;;;;;;;5.67;5.67;;;;;19.63;43.33;102037.13;5039403;28;45342;-71
2022/05/05 10:52:29;;;;;;;;;8.00;8.00;;;;;19.84;43.83;102036.53;5034216;28;45608;-70
2022/05/05 10:54:55;;;;;;;;;5.00;5.00;;;;;20.38;42.89;102036.66;5035983;28;45416;-72
2022/05/05 10:57:26;;;;;;;;;11.00;8.33;;;;;20.40;42.12;102035.41;5023808;28;45349;-71
2022/05/05 11:00:19;;;;;;;;;8.00;8.00;;;;;20.44;41.49;102033.19;5030865;28;45351;-71
2022/05/05 11:03:03;;;;;;;;;9.67;9.00;;;;;20.25;42.15;102031.69;5031262;28;45870;-71
2022/05/05 11:05:39;;;;;;;;;10.33;9.00;;;;;20.21;41.72;102028.44;5017006;28;45545;-71
2022/05/05 11:08:08;;;;;;;;;5.00;5.00;;;;;20.31;41.50;102035.63;5024441;28;45600;-72
2022/05/05 11:13:47;;;;;;;;;5.67;5.67;;;;;19.87;42.48;102025.13;5009520;28;45541;-71
2022/05/05 11:22:19;;;;;;;;;9.67;8.00;;;;;19.66;42.68;102030.38;5028810;28;45346;-70
2022/05/05 11:24:49;;;;;;;;;11.67;10.00;;;;;19.84;42.61;102031.00;5028933;28;45529;-71
2022/05/05 11:27:23;;;;;;;;;7.00;5.00;;;;;19.83;42.03;102027.38;5035974;28;45517;-71
2022/05/05 11:29:54;;;;;;;;;9.00;7.00;;;;;19.81;42.03;102029.47;5027834;28;45422;-70
2022/05/05 11:32:21;;;;;;;;;7.00;6.00;;;;;19.67;42.41;102032.09;5025144;28;45357;-71
2022/05/05 11:34:48;;;;;;;;;10.67;7.00;;;;;19.65;42.24;102023.16;5036205;28;46655;-71
2022/05/05 11:37:14;;;;;;;;;6.00;6.00;;;;;19.13;42.70;102026.31;5035599;28;45244;-71
2022/05/05 11:39:40;;;;;;;;;5.00;5.00;;;;;19.33;42.85;102019.41;5028233;28;45420;-71
2022/05/05 11:42:06;;;;;;;;;15.00;14.33;;;;;19.32;42.71;102036.09;5019219;28;45473;-71
2022/05/05 11:44:44;;;;;;;;;7.67;7.67;;;;;19.21;42.45;102034.59;5026963;28;45403;-71
2022/05/05 11:47:10;;;;;;;;;8.00;6.00;;;;;19.33;42.62;102033.19;5035615;28;45346;-71
2022/05/05 11:49:36;;;;;;;;;5.33;4.33;;;;;19.18;42.89;102029.41;5027764;28;45458;-70
2022/05/05 11:52:03;;;;;;;;;6.00;6.00;;;;;19.30;42.29;102028.00;5035040;28;45262;-71
2022/05/05 11:54:32;;;;;;;;;5.33;5.33;;;;;19.24;42.79;102025.09;5026797;28;45439;-71
2022/05/05 11:56:58;;;;;;;;;9.33;6.33;;;;;19.13;43.52;102028.22;5032713;28;45474;-71
2022/05/05 12:02:15;;;;;;;;;10.00;9.00;;;;;19.22;43.51;102024.38;5036623;28;45343;-71